createdAt,value
2022-11-17T00:00:42.074Z,3.10
2022-11-17T00:03:16.093Z,3.10
2022-11-17T00:05:44.471Z,3.00
2022-11-17T00:08:12.600Z,3.10
2022-11-17T00:10:41.981Z,3.10
2022-11-17T00:13:29.239Z,3.10
2022-11-17T00:15:57.306Z,3.10
2022-11-17T00:18:42.636Z,3.40
2022-11-17T00:21:23.901Z,3.10
2022-11-17T00:23:52.198Z,3.10
2022-11-17T00:26:23.685Z,3.00
2022-11-17T00:28:54.695Z,3.00
2022-11-17T00:31:41.126Z,3.10
2022-11-17T00:34:12.209Z,3.00
2022-11-17T00:36:42.247Z,3.00
2022-11-17T00:39:11.290Z,3.00
2022-11-17T00:41:41.104Z,2.90
2022-11-17T00:44:10.028Z,2.90
2022-11-17T00:46:39.595Z,2.90
2022-11-17T00:49:09.033Z,2.90
2022-11-17T00:51:38.213Z,3.00
2022-11-17T00:54:07.676Z,3.20
2022-11-17T00:56:35.821Z,2.90
2022-11-17T00:59:05.557Z,3.20
2022-11-17T01:01:34.010Z,2.90
2022-11-17T01:04:04.335Z,2.90
2022-11-17T01:06:35.589Z,3.60
2022-11-17T01:09:05.028Z,2.90
2022-11-17T01:11:33.791Z,2.90
2022-11-17T01:14:02.269Z,2.80
2022-11-17T01:16:33.409Z,2.90
2022-11-17T01:19:03.715Z,2.80
2022-11-17T01:21:32.917Z,2.80
2022-11-17T01:24:02.862Z,3.00
2022-11-17T01:26:33.052Z,3.30
2022-11-17T01:29:02.393Z,2.80
2022-11-17T01:31:34.382Z,2.80
2022-11-17T01:34:03.163Z,2.70
2022-11-17T01:36:53.929Z,2.70
2022-11-17T01:39:22.645Z,2.80
2022-11-17T01:41:51.007Z,2.70
2022-11-17T01:44:56.002Z,2.70
2022-11-17T01:47:40.688Z,2.70
2022-11-17T01:50:17.488Z,2.80
2022-11-17T01:52:47.241Z,2.70
2022-11-17T01:55:15.486Z,2.80
2022-11-17T01:57:48.175Z,2.70
2022-11-17T02:00:17.759Z,2.70
2022-11-17T02:02:48.987Z,2.70
2022-11-17T02:05:44.937Z,3.10
2022-11-17T02:08:13.699Z,3.70
2022-11-17T02:10:45.883Z,3.30
2022-11-17T02:13:18.782Z,3.60
2022-11-17T02:15:47.064Z,2.70
2022-11-17T02:18:17.485Z,2.60
2022-11-17T02:21:02.590Z,2.60
2022-11-17T02:23:58.352Z,2.60
2022-11-17T02:26:57.468Z,2.50
2022-11-17T02:29:31.376Z,3.50
2022-11-17T02:32:05.976Z,2.50
2022-11-17T02:34:42.554Z,2.50
2022-11-17T02:37:20.186Z,2.50
2022-11-17T02:39:55.240Z,2.50
2022-11-17T02:42:42.880Z,2.50
2022-11-17T02:45:15.356Z,2.50
2022-11-17T02:47:46.946Z,2.50
2022-11-17T02:50:15.834Z,2.40
2022-11-17T02:52:44.119Z,2.40
2022-11-17T02:55:12.816Z,2.40
2022-11-17T02:57:42.203Z,2.40
2022-11-17T03:00:15.052Z,2.30
2022-11-17T03:02:59.018Z,2.40
2022-11-17T03:05:34.540Z,2.30
2022-11-17T03:08:15.230Z,2.30
2022-11-17T03:10:52.841Z,2.30
2022-11-17T03:13:26.778Z,2.60
2022-11-17T03:16:07.150Z,2.70
2022-11-17T03:18:41.266Z,2.30
2022-11-17T03:21:14.814Z,2.30
2022-11-17T03:23:46.608Z,2.20
2022-11-17T03:26:17.537Z,2.20
2022-11-17T03:28:47.610Z,2.10
2022-11-17T03:31:19.182Z,2.10
2022-11-17T03:33:50.821Z,2.40
2022-11-17T03:36:23.631Z,2.00
2022-11-17T03:38:59.368Z,1.90
2022-11-17T03:41:29.979Z,1.90
2022-11-17T03:43:59.420Z,1.90
2022-11-17T03:46:31.545Z,1.90
2022-11-17T03:49:07.049Z,1.80
2022-11-17T03:51:35.144Z,1.80
2022-11-17T03:54:03.519Z,1.90
2022-11-17T03:56:39.687Z,2.50
2022-11-17T03:59:16.554Z,2.70
2022-11-17T04:01:46.151Z,2.50
2022-11-17T04:04:16.135Z,1.80
2022-11-17T04:06:44.331Z,1.80
2022-11-17T04:09:12.519Z,1.80
2022-11-17T04:11:58.118Z,2.50
2022-11-17T04:14:43.832Z,1.80
2022-11-17T04:17:16.137Z,1.90
2022-11-17T04:19:44.271Z,1.70
2022-11-17T04:22:12.431Z,1.80
2022-11-17T04:24:40.648Z,1.70
2022-11-17T04:27:26.915Z,1.70
2022-11-17T04:29:55.088Z,2.40
2022-11-17T04:32:24.541Z,1.70
2022-11-17T04:34:52.675Z,1.70
2022-11-17T04:37:20.874Z,1.70
2022-11-17T04:39:48.976Z,1.70
2022-11-17T04:42:16.120Z,1.70
2022-11-17T04:44:44.285Z,1.70
2022-11-17T04:47:12.398Z,1.70
2022-11-17T04:49:41.863Z,1.70
2022-11-17T04:52:10.195Z,1.70
2022-11-17T04:54:38.294Z,1.90
2022-11-17T04:57:06.311Z,1.80
2022-11-17T04:59:34.343Z,1.70
2022-11-17T05:02:05.858Z,1.80
2022-11-17T05:04:51.827Z,1.70
2022-11-17T05:07:21.348Z,2.50
2022-11-17T05:09:49.399Z,1.80
2022-11-17T05:12:34.873Z,1.70
2022-11-17T05:15:02.966Z,1.60
2022-11-17T05:17:29.969Z,1.70
2022-11-17T05:20:01.352Z,1.60
2022-11-17T05:22:48.298Z,1.70
2022-11-17T05:25:16.453Z,1.70
2022-11-17T05:27:44.634Z,1.60
2022-11-17T05:30:13.776Z,1.70
2022-11-17T05:32:41.942Z,1.70
2022-11-17T05:35:10.699Z,1.60
2022-11-17T05:37:40.201Z,1.70
2022-11-17T05:40:09.785Z,1.60
2022-11-17T05:42:37.874Z,1.60
2022-11-17T05:45:06.778Z,1.70
2022-11-17T05:47:34.836Z,1.60
2022-11-17T05:50:02.894Z,2.10
2022-11-17T05:52:32.057Z,1.60
2022-11-17T05:55:01.545Z,1.60
2022-11-17T05:57:33.469Z,1.60
2022-11-17T06:00:04.718Z,1.60
2022-11-17T06:02:36.722Z,1.60
2022-11-17T06:05:05.751Z,1.60
2022-11-17T06:07:35.626Z,1.50
2022-11-17T06:10:05.691Z,1.50
2022-11-17T06:12:33.825Z,1.60
2022-11-17T06:15:01.851Z,1.50
2022-11-17T06:17:34.486Z,1.50
2022-11-17T06:20:07.419Z,1.70
2022-11-17T06:22:36.161Z,1.50
2022-11-17T06:25:09.480Z,1.50
2022-11-17T06:27:38.846Z,1.40
2022-11-17T06:30:16.200Z,2.10
2022-11-17T06:32:44.963Z,1.60
2022-11-17T06:35:17.509Z,1.50
2022-11-17T06:37:45.666Z,1.50
2022-11-17T06:40:15.380Z,2.40
2022-11-17T06:43:01.282Z,1.70
2022-11-17T06:45:29.378Z,1.50
2022-11-17T06:47:57.434Z,1.50
2022-11-17T06:50:25.510Z,1.40
2022-11-17T06:52:57.148Z,1.50
2022-11-17T06:55:30.900Z,1.50
2022-11-17T06:58:03.810Z,1.60
2022-11-17T07:00:32.308Z,1.60
2022-11-17T07:03:01.601Z,1.50
2022-11-17T07:05:29.605Z,1.80
2022-11-17T07:07:59.832Z,1.50
2022-11-17T07:10:29.987Z,1.60
2022-11-17T07:12:58.187Z,1.40
2022-11-17T07:15:26.931Z,1.40
2022-11-17T07:17:54.974Z,1.40
2022-11-17T07:20:22.924Z,1.90
2022-11-17T07:22:50.930Z,2.00
2022-11-17T07:25:22.387Z,1.50
2022-11-17T07:27:58.902Z,1.40
2022-11-17T07:30:27.047Z,2.10
2022-11-17T07:32:55.209Z,1.80
2022-11-17T07:35:23.287Z,1.40
2022-11-17T07:37:51.335Z,1.50
2022-11-17T07:40:19.514Z,2.20
2022-11-17T07:42:51.248Z,1.40
2022-11-17T07:45:19.289Z,1.40
2022-11-17T07:47:53.544Z,2.30
2022-11-17T07:50:21.642Z,2.00
2022-11-17T07:52:50.146Z,1.90
2022-11-17T07:55:18.670Z,1.40
2022-11-17T07:57:47.058Z,1.40
2022-11-17T08:00:17.283Z,1.40
2022-11-17T08:02:45.274Z,1.30
2022-11-17T08:05:13.312Z,1.40
2022-11-17T08:07:41.391Z,1.40
2022-11-17T08:10:10.124Z,1.40
2022-11-17T08:12:38.236Z,1.50
2022-11-17T08:15:07.545Z,1.80
2022-11-17T08:17:37.016Z,1.40
2022-11-17T08:20:06.526Z,1.30
2022-11-17T08:22:34.557Z,1.30
2022-11-17T08:25:02.602Z,1.30
2022-11-17T08:27:30.641Z,1.30
2022-11-17T08:29:58.655Z,1.20
2022-11-17T08:32:26.652Z,1.20
2022-11-17T08:34:56.380Z,1.80
2022-11-17T08:37:24.429Z,1.30
2022-11-17T08:39:52.464Z,1.40
2022-11-17T08:42:20.455Z,1.40
2022-11-17T08:44:48.536Z,1.40
2022-11-17T08:47:16.550Z,2.10
2022-11-17T08:49:44.587Z,1.50
2022-11-17T08:52:13.929Z,1.50
2022-11-17T08:54:41.994Z,1.50
2022-11-17T08:57:10.081Z,2.10
2022-11-17T08:59:38.379Z,1.40
2022-11-17T09:02:06.885Z,1.40
2022-11-17T09:04:35.067Z,1.50
2022-11-17T09:07:03.284Z,1.50
2022-11-17T09:09:33.517Z,1.40
2022-11-17T09:12:01.796Z,1.50
2022-11-17T09:14:31.711Z,1.30
2022-11-17T09:16:59.865Z,1.20
2022-11-17T09:19:28.433Z,1.20
2022-11-17T09:21:56.473Z,1.20
2022-11-17T09:24:26.990Z,1.20
2022-11-17T09:26:57.542Z,1.30
2022-11-17T09:29:25.599Z,1.30
2022-11-17T09:31:53.723Z,1.40
2022-11-17T09:34:23.667Z,1.40
2022-11-17T09:36:51.827Z,1.40
2022-11-17T09:39:19.882Z,1.40
2022-11-17T09:41:54.248Z,1.40
2022-11-17T09:44:39.602Z,1.40
2022-11-17T09:47:20.849Z,1.40
2022-11-17T09:49:59.002Z,1.50
2022-11-17T09:52:32.405Z,1.40
2022-11-17T09:55:02.397Z,1.30
2022-11-17T09:57:36.626Z,1.30
2022-11-17T10:00:16.562Z,1.40
2022-11-17T10:02:45.096Z,1.40
2022-11-17T10:05:20.737Z,1.40
2022-11-17T10:07:51.960Z,1.50
2022-11-17T10:10:23.613Z,1.40
2022-11-17T10:12:59.237Z,1.40
2022-11-17T10:15:38.117Z,1.30
2022-11-17T10:18:16.406Z,1.40
2022-11-17T10:20:46.135Z,1.40
2022-11-17T10:23:15.884Z,1.40
2022-11-17T10:25:46.835Z,1.40
2022-11-17T10:28:30.890Z,1.90
2022-11-17T10:31:03.125Z,1.60
2022-11-17T10:33:39.548Z,1.60
2022-11-17T10:36:16.117Z,1.50
2022-11-17T10:38:46.326Z,1.40
2022-11-17T10:41:18.231Z,1.40
2022-11-17T10:43:57.733Z,1.50
2022-11-17T10:47:02.607Z,1.60
2022-11-17T10:49:34.945Z,1.50
2022-11-17T10:52:08.263Z,1.50
2022-11-17T10:54:36.409Z,1.60
2022-11-17T10:57:09.437Z,1.50
2022-11-17T10:59:45.507Z,1.50
2022-11-17T11:02:30.079Z,1.50
2022-11-17T11:05:08.252Z,1.50
2022-11-17T11:07:36.436Z,1.50
2022-11-17T11:10:11.567Z,1.40
2022-11-17T11:12:44.789Z,1.40
2022-11-17T11:15:20.429Z,1.40
2022-11-17T11:17:50.051Z,1.50
2022-11-17T11:20:21.105Z,1.50
2022-11-17T11:22:57.972Z,1.50
2022-11-17T11:25:35.135Z,1.60
2022-11-17T11:28:16.274Z,2.00
2022-11-17T11:30:55.037Z,2.40
2022-11-17T11:33:35.154Z,2.40
2022-11-17T11:36:23.644Z,1.60
2022-11-17T11:39:05.136Z,1.70
2022-11-17T11:41:43.400Z,1.70
2022-11-17T11:44:30.936Z,1.70
2022-11-17T11:47:12.370Z,1.90
2022-11-17T11:49:47.138Z,1.90
2022-11-17T11:52:19.926Z,1.90
2022-11-17T11:54:52.454Z,0.90
2022-11-17T11:57:25.890Z,2.80
2022-11-17T12:00:03.501Z,2.70
2022-11-17T12:02:41.485Z,2.30
2022-11-17T12:05:20.231Z,2.10
2022-11-17T12:07:53.004Z,3.10
2022-11-17T12:10:27.993Z,2.20
2022-11-17T12:12:56.124Z,2.20
2022-11-17T12:15:35.752Z,2.20
2022-11-17T12:18:06.758Z,2.30
2022-11-17T12:21:04.062Z,2.60
2022-11-17T12:24:02.230Z,3.20
2022-11-17T12:26:32.512Z,3.00
2022-11-17T12:29:25.647Z,2.90
2022-11-17T12:31:54.645Z,2.90
2022-11-17T12:34:25.814Z,2.40
2022-11-17T12:37:22.056Z,2.30
2022-11-17T12:40:05.790Z,2.40
2022-11-17T12:42:35.358Z,2.20
2022-11-17T12:45:10.740Z,2.20
2022-11-17T12:47:40.494Z,2.10
2022-11-17T12:50:33.299Z,2.10
2022-11-17T12:53:32.475Z,1.90
2022-11-17T12:56:28.108Z,1.90
2022-11-17T12:59:39.870Z,1.70
2022-11-17T13:02:26.785Z,1.70
2022-11-17T13:04:58.748Z,1.70
2022-11-17T13:07:28.214Z,1.60
2022-11-17T13:09:59.288Z,1.60
2022-11-17T13:12:28.801Z,1.80
2022-11-17T13:14:58.699Z,1.50
2022-11-17T13:17:29.817Z,1.40
2022-11-17T13:20:04.125Z,2.00
2022-11-17T13:22:34.414Z,2.30
2022-11-17T13:25:22.625Z,1.40
2022-11-17T13:27:56.094Z,1.60
2022-11-17T13:30:27.425Z,2.20
2022-11-17T13:32:56.344Z,2.30
2022-11-17T13:35:26.503Z,2.30
2022-11-17T13:38:09.547Z,2.50
2022-11-17T13:40:41.288Z,2.60
2022-11-17T13:43:14.016Z,2.90
2022-11-17T13:45:45.502Z,4.00
2022-11-17T13:48:31.758Z,4.60
2022-11-17T13:51:37.197Z,4.10
2022-11-17T13:54:15.029Z,4.40
2022-11-17T13:56:53.097Z,4.70
2022-11-17T13:59:26.212Z,4.70
2022-11-17T14:02:31.084Z,4.90
2022-11-17T14:05:23.116Z,4.90
2022-11-17T14:07:52.985Z,4.70
2022-11-17T14:10:37.647Z,4.60
2022-11-17T14:13:24.838Z,4.50
2022-11-17T14:15:56.801Z,5.00
2022-11-17T14:18:30.194Z,4.50
2022-11-17T14:21:13.534Z,4.50
2022-11-17T14:23:42.174Z,4.50
2022-11-17T14:26:23.409Z,4.30
2022-11-17T14:28:54.004Z,4.00
2022-11-17T14:31:22.148Z,3.60
2022-11-17T14:33:50.564Z,3.40
2022-11-17T14:36:19.159Z,3.00
2022-11-17T14:38:47.517Z,2.60
2022-11-17T14:41:16.501Z,2.40
2022-11-17T14:43:44.805Z,2.20
2022-11-17T14:46:19.836Z,2.10
2022-11-17T14:48:48.203Z,1.80
2022-11-17T14:51:16.288Z,1.70
2022-11-17T14:53:44.859Z,1.60
2022-11-17T14:56:15.600Z,1.30
2022-11-17T14:58:43.620Z,1.10
2022-11-17T15:01:13.515Z,0.90
2022-11-17T15:03:43.074Z,1.00
2022-11-17T15:06:18.224Z,1.80
2022-11-17T15:08:48.241Z,0.80
2022-11-17T15:11:18.935Z,0.60
2022-11-17T15:13:46.980Z,0.50
2022-11-17T15:16:15.029Z,0.40
2022-11-17T15:18:47.629Z,0.40
2022-11-17T15:21:16.845Z,0.40
2022-11-17T15:23:45.670Z,0.30
2022-11-17T15:26:15.907Z,0.90
2022-11-17T15:28:44.326Z,0.30
2022-11-17T15:31:14.925Z,0.20
2022-11-17T15:33:44.193Z,0.20
2022-11-17T15:36:15.770Z,0.10
2022-11-17T15:38:44.320Z,0.00
2022-11-17T15:41:13.910Z,-0.10
2022-11-17T15:43:43.409Z,-0.20
2022-11-17T15:46:13.467Z,0.10
2022-11-17T15:48:43.429Z,-0.10
2022-11-17T15:51:14.857Z,-0.10
2022-11-17T15:53:43.957Z,-0.10
2022-11-17T15:56:13.653Z,0.00
2022-11-17T15:58:46.437Z,-0.10
2022-11-17T16:01:16.020Z,0.00
2022-11-17T16:03:46.215Z,0.00
2022-11-17T16:06:15.674Z,0.90
2022-11-17T16:08:43.771Z,0.00
2022-11-17T16:11:12.418Z,0.40
2022-11-17T16:13:40.574Z,0.10
2022-11-17T16:16:13.369Z,0.10
2022-11-17T16:18:41.556Z,0.00
2022-11-17T16:21:12.720Z,0.00
2022-11-17T16:23:43.866Z,0.00
2022-11-17T16:26:12.737Z,0.10
2022-11-17T16:28:41.450Z,-0.10
2022-11-17T16:31:17.867Z,-0.10
2022-11-17T16:33:49.859Z,-0.10
2022-11-17T16:36:18.324Z,-0.10
2022-11-17T16:39:00.246Z,-0.10
2022-11-17T16:41:31.716Z,-0.10
2022-11-17T16:43:59.928Z,0.00
2022-11-17T16:46:29.815Z,0.00
2022-11-17T16:49:01.306Z,0.00
2022-11-17T16:51:29.559Z,0.00
2022-11-17T16:54:00.707Z,0.50
2022-11-17T16:56:29.097Z,-0.20
2022-11-17T16:58:57.433Z,-0.10
2022-11-17T17:01:27.197Z,0.10
2022-11-17T17:03:58.899Z,0.80
2022-11-17T17:06:27.339Z,-0.20
2022-11-17T17:08:55.952Z,0.80
2022-11-17T17:11:27.277Z,-0.20
2022-11-17T17:13:56.404Z,-0.30
2022-11-17T17:16:25.793Z,-0.20
2022-11-17T17:18:56.717Z,-0.30
2022-11-17T17:21:24.797Z,-0.20
2022-11-17T17:23:52.985Z,-0.20
2022-11-17T17:26:24.883Z,-0.20
2022-11-17T17:28:57.254Z,-0.20
2022-11-17T17:31:29.335Z,-0.30
2022-11-17T17:33:57.713Z,-0.30
2022-11-17T17:36:26.634Z,-0.30
2022-11-17T17:38:56.451Z,-0.30
2022-11-17T17:41:26.691Z,-0.10
2022-11-17T17:44:01.899Z,-0.30
2022-11-17T17:46:30.663Z,-0.40
2022-11-17T17:48:59.114Z,-0.30
2022-11-17T17:51:28.698Z,-0.40
2022-11-17T17:53:58.391Z,-0.30
2022-11-17T17:56:26.838Z,0.20
2022-11-17T17:58:56.337Z,-0.50
2022-11-17T18:01:30.643Z,-0.50
2022-11-17T18:04:04.319Z,-0.50
2022-11-17T18:06:36.465Z,-0.50
2022-11-17T18:09:04.539Z,-0.50
2022-11-17T18:11:32.711Z,0.40
2022-11-17T18:14:00.732Z,-0.30
2022-11-17T18:16:32.660Z,-0.30
2022-11-17T18:19:02.810Z,-0.40
2022-11-17T18:21:31.546Z,-0.30
2022-11-17T18:24:02.698Z,-0.30
2022-11-17T18:26:32.404Z,-0.40
2022-11-17T18:29:02.622Z,-0.50
2022-11-17T18:31:39.272Z,-0.50
2022-11-17T18:34:09.841Z,-0.60
2022-11-17T18:36:37.920Z,-0.70
2022-11-17T18:39:05.978Z,-0.60
2022-11-17T18:41:34.131Z,-0.80
2022-11-17T18:44:02.482Z,-0.80
2022-11-17T18:46:33.609Z,-0.80
2022-11-17T18:49:02.203Z,-0.90
2022-11-17T18:51:34.175Z,-0.50
2022-11-17T18:54:03.192Z,-0.50
2022-11-17T18:56:34.518Z,-0.30
2022-11-17T18:59:02.595Z,-0.90
2022-11-17T19:01:32.248Z,-0.70
2022-11-17T19:04:01.341Z,-1.00
2022-11-17T19:06:30.239Z,-0.90
2022-11-17T19:09:00.087Z,-1.00
2022-11-17T19:11:30.751Z,-0.90
2022-11-17T19:14:02.186Z,-0.10
2022-11-17T19:16:32.953Z,-1.20
2022-11-17T19:19:03.290Z,-1.10
2022-11-17T19:21:33.664Z,-0.10
2022-11-17T19:24:03.328Z,-1.00
2022-11-17T19:26:33.652Z,-1.00
2022-11-17T19:29:03.927Z,-0.90
2022-11-17T19:31:37.110Z,-0.90
2022-11-17T19:34:08.427Z,-0.90
2022-11-17T19:36:36.665Z,-1.00
2022-11-17T19:39:05.172Z,-1.00
2022-11-17T19:41:41.631Z,-0.90
2022-11-17T19:44:13.312Z,-0.60
2022-11-17T19:46:43.302Z,-1.00
2022-11-17T19:49:13.514Z,-0.30
2022-11-17T19:51:42.289Z,-0.90
2022-11-17T19:54:13.332Z,-0.30
2022-11-17T19:56:41.800Z,0.20
2022-11-17T19:59:15.789Z,-0.80
2022-11-17T20:01:46.758Z,-0.80
2022-11-17T20:04:14.983Z,-0.70
2022-11-17T20:06:44.704Z,-0.20
2022-11-17T20:09:15.362Z,-0.80
2022-11-17T20:11:44.222Z,-0.70
2022-11-17T20:14:12.253Z,-0.80
2022-11-17T20:16:42.668Z,-0.90
2022-11-17T20:19:13.604Z,-0.90
2022-11-17T20:21:42.645Z,-0.80
2022-11-17T20:24:11.126Z,-0.80
2022-11-17T20:26:40.978Z,-0.80
2022-11-17T20:29:09.492Z,-0.80
2022-11-17T20:31:38.011Z,-0.80
2022-11-17T20:34:06.898Z,-0.80
2022-11-17T20:36:36.368Z,-0.70
2022-11-17T20:39:07.174Z,-0.80
2022-11-17T20:41:35.838Z,-0.80
2022-11-17T20:44:04.240Z,-0.80
2022-11-17T20:46:32.394Z,-0.70
2022-11-17T20:49:01.058Z,-0.60
2022-11-17T20:51:29.076Z,-0.70
2022-11-17T20:53:58.564Z,-0.30
2022-11-17T20:56:26.691Z,0.10
2022-11-17T20:58:54.713Z,-0.50
2022-11-17T21:01:24.376Z,-0.70
2022-11-17T21:03:52.672Z,-0.80
2022-11-17T21:06:22.897Z,-0.80
2022-11-17T21:08:51.094Z,-0.10
2022-11-17T21:11:40.558Z,-0.90
2022-11-17T21:14:11.317Z,-1.00
2022-11-17T21:16:41.524Z,-0.50
2022-11-17T21:19:10.437Z,-0.50
2022-11-17T21:21:38.684Z,-1.10
2022-11-17T21:24:08.123Z,-1.10
2022-11-17T21:26:38.161Z,-1.20
2022-11-17T21:29:07.207Z,-1.30
2022-11-17T21:31:35.922Z,-1.30
2022-11-17T21:34:06.114Z,-1.30
2022-11-17T21:36:36.012Z,-1.20
2022-11-17T21:39:04.082Z,-1.30
2022-11-17T21:41:35.291Z,-1.30
2022-11-17T21:44:05.462Z,-1.40
2022-11-17T21:46:36.154Z,-1.40
2022-11-17T21:49:04.413Z,-1.30
2022-11-17T21:51:34.214Z,-1.40
2022-11-17T21:54:03.477Z,-1.60
2022-11-17T21:56:32.123Z,-1.30
2022-11-17T21:59:01.852Z,-1.70
2022-11-17T22:01:32.187Z,-1.70
2022-11-17T22:04:00.476Z,-1.60
2022-11-17T22:06:28.850Z,-1.60
2022-11-17T22:08:57.718Z,-1.50
2022-11-17T22:11:36.986Z,-1.50
2022-11-17T22:17:05.275Z,-1.50
2022-11-17T22:19:33.809Z,-1.60
2022-11-17T22:22:02.005Z,-1.60
2022-11-17T22:24:31.346Z,-1.70
2022-11-17T22:26:59.715Z,-0.90
2022-11-17T22:29:27.911Z,-1.70
2022-11-17T22:31:56.262Z,-0.80
2022-11-17T22:34:25.843Z,-1.60
2022-11-17T22:36:54.086Z,-1.60
2022-11-17T22:39:22.329Z,-1.60
2022-11-17T22:41:50.497Z,-1.60
2022-11-17T22:44:19.281Z,-1.70
2022-11-17T22:46:47.920Z,-1.70
2022-11-17T22:49:16.480Z,-0.90
2022-11-17T22:52:04.441Z,-1.70
2022-11-17T22:54:32.964Z,-1.70
2022-11-17T22:57:01.623Z,-1.10
2022-11-17T22:59:31.701Z,-1.70
2022-11-17T23:02:00.159Z,-1.50
2022-11-17T23:04:29.730Z,-1.70
2022-11-17T23:06:59.369Z,-1.70
2022-11-17T23:09:27.604Z,-1.70
2022-11-17T23:11:55.653Z,-1.70
2022-11-17T23:14:23.785Z,-1.70
2022-11-17T23:16:53.129Z,-1.30
2022-11-17T23:19:21.305Z,-1.40
2022-11-17T23:21:49.565Z,-1.50
2022-11-17T23:24:19.745Z,-1.10
2022-11-17T23:26:47.939Z,-1.30
2022-11-17T23:29:16.845Z,-1.30
2022-11-17T23:31:45.812Z,-1.20
2022-11-17T23:34:14.694Z,-0.40
2022-11-17T23:36:42.971Z,-0.80
2022-11-17T23:39:11.318Z,-1.20
2022-11-17T23:41:41.154Z,-0.80
2022-11-17T23:44:09.618Z,-1.10
2022-11-17T23:46:38.132Z,-0.50
2022-11-17T23:49:06.279Z,-1.10
2022-11-17T23:51:34.940Z,-1.10
2022-11-17T23:54:03.925Z,-0.80
2022-11-17T23:56:33.753Z,-0.60
2022-11-17T23:59:03.611Z,-0.90
